sensor_id;sensor_type;location;lat;lon;timestamp;temperature;humidity
19898;DHT22;10111;50.814;4.572;2023-02-15T00:01:42;2.30;99.90
19898;DHT22;10111;50.814;4.572;2023-02-15T00:04:08;2.20;99.90
19898;DHT22;10111;50.814;4.572;2023-02-15T00:06:34;2.30;99.90
19898;DHT22;10111;50.814;4.572;2023-02-15T00:09:01;2.40;99.90
19898;DHT22;10111;50.814;4.572;2023-02-15T00:11:27;2.30;99.90
19898;DHT22;10111;50.814;4.572;2023-02-15T00:14:19;2.20;99.90
19898;DHT22;10111;50.814;4.572;2023-02-15T00:16:46;2.30;99.90
19898;DHT22;10111;50.814;4.572;2023-02-15T00:19:13;2.20;99.90
19898;DHT22;10111;50.814;4.572;2023-02-15T00:21:40;2.30;99.90
19898;DHT22;10111;50.814;4.572;2023-02-15T00:24:08;2.20;99.90
19898;DHT22;10111;50.814;4.572;2023-02-15T00:26:35;2.20;99.90
19898;DHT22;10111;50.814;4.572;2023-02-15T00:29:01;2.40;99.90
19898;DHT22;10111;50.814;4.572;2023-02-15T00:31:28;2.20;99.90
19898;DHT22;10111;50.814;4.572;2023-02-15T00:34:00;2.30;99.90
19898;DHT22;10111;50.814;4.572;2023-02-15T00:36:26;2.20;99.90
19898;DHT22;10111;50.814;4.572;2023-02-15T00:38:52;2.20;99.90
19898;DHT22;10111;50.814;4.572;2023-02-15T00:41:17;2.20;99.90
19898;DHT22;10111;50.814;4.572;2023-02-15T00:43:43;2.20;99.90
19898;DHT22;10111;50.814;4.572;2023-02-15T00:46:09;2.20;99.90
19898;DHT22;10111;50.814;4.572;2023-02-15T00:48:35;2.10;99.90
19898;DHT22;10111;50.814;4.572;2023-02-15T00:51:00;2.00;99.90
19898;DHT22;10111;50.814;4.572;2023-02-15T00:53:27;1.90;99.90
19898;DHT22;10111;50.814;4.572;2023-02-15T00:55:53;2.20;99.90
19898;DHT22;10111;50.814;4.572;2023-02-15T00:58:19;2.00;99.90
19898;DHT22;10111;50.814;4.572;2023-02-15T01:00:46;2.00;99.90
19898;DHT22;10111;50.814;4.572;2023-02-15T01:03:13;1.90;99.90
19898;DHT22;10111;50.814;4.572;2023-02-15T01:05:39;1.90;99.90
19898;DHT22;10111;50.814;4.572;2023-02-15T01:08:06;1.80;99.90
19898;DHT22;10111;50.814;4.572;2023-02-15T01:10:32;1.80;99.90
19898;DHT22;10111;50.814;4.572;2023-02-15T01:12:58;1.70;99.90
19898;DHT22;10111;50.814;4.572;2023-02-15T01:15:24;1.70;99.90
19898;DHT22;10111;50.814;4.572;2023-02-15T01:17:50;1.70;99.90
19898;DHT22;10111;50.814;4.572;2023-02-15T01:20:27;1.70;99.90
19898;DHT22;10111;50.814;4.572;2023-02-15T01:22:54;1.60;99.90
19898;DHT22;10111;50.814;4.572;2023-02-15T01:25:22;1.60;99.90
19898;DHT22;10111;50.814;4.572;2023-02-15T01:27:47;1.60;99.90
19898;DHT22;10111;50.814;4.572;2023-02-15T01:30:14;1.60;99.90
19898;DHT22;10111;50.814;4.572;2023-02-15T01:32:40;1.60;99.90
19898;DHT22;10111;50.814;4.572;2023-02-15T01:35:07;1.50;99.90
19898;DHT22;10111;50.814;4.572;2023-02-15T01:37:33;1.40;99.90
19898;DHT22;10111;50.814;4.572;2023-02-15T01:40:00;1.50;99.90
19898;DHT22;10111;50.814;4.572;2023-02-15T01:42:28;1.60;99.90
19898;DHT22;10111;50.814;4.572;2023-02-15T01:44:59;1.50;99.90
19898;DHT22;10111;50.814;4.572;2023-02-15T01:50:12;1.50;99.90
19898;DHT22;10111;50.814;4.572;2023-02-15T01:52:45;1.40;99.90
19898;DHT22;10111;50.814;4.572;2023-02-15T01:55:12;1.40;99.90
19898;DHT22;10111;50.814;4.572;2023-02-15T01:57:39;1.40;99.90
19898;DHT22;10111;50.814;4.572;2023-02-15T02:00:06;1.40;99.90
19898;DHT22;10111;50.814;4.572;2023-02-15T02:02:33;1.30;99.90
19898;DHT22;10111;50.814;4.572;2023-02-15T02:05:00;1.30;99.90
19898;DHT22;10111;50.814;4.572;2023-02-15T02:07:33;1.30;99.90
19898;DHT22;10111;50.814;4.572;2023-02-15T02:10:01;1.40;99.90
19898;DHT22;10111;50.814;4.572;2023-02-15T02:12:27;1.40;99.90
19898;DHT22;10111;50.814;4.572;2023-02-15T02:14:53;1.50;99.90
19898;DHT22;10111;50.814;4.572;2023-02-15T02:20:30;1.40;99.90
19898;DHT22;10111;50.814;4.572;2023-02-15T02:23:08;1.30;99.90
19898;DHT22;10111;50.814;4.572;2023-02-15T02:37:03;1.20;99.90
19898;DHT22;10111;50.814;4.572;2023-02-15T02:39:37;1.20;99.90
19898;DHT22;10111;50.814;4.572;2023-02-15T02:44:57;1.20;99.90
19898;DHT22;10111;50.814;4.572;2023-02-15T02:47:50;1.20;99.90
19898;DHT22;10111;50.814;4.572;2023-02-15T02:50:22;1.20;99.90
19898;DHT22;10111;50.814;4.572;2023-02-15T02:52:50;1.10;99.90
19898;DHT22;10111;50.814;4.572;2023-02-15T02:57:48;1.10;99.90
19898;DHT22;10111;50.814;4.572;2023-02-15T03:00:17;1.20;99.90
19898;DHT22;10111;50.814;4.572;2023-02-15T03:02:45;1.10;99.90
19898;DHT22;10111;50.814;4.572;2023-02-15T03:05:16;1.10;99.90
19898;DHT22;10111;50.814;4.572;2023-02-15T03:07:46;1.10;99.90
19898;DHT22;10111;50.814;4.572;2023-02-15T03:10:13;1.10;99.90
19898;DHT22;10111;50.814;4.572;2023-02-15T03:12:40;1.10;99.90
19898;DHT22;10111;50.814;4.572;2023-02-15T03:15:20;1.00;99.90
19898;DHT22;10111;50.814;4.572;2023-02-15T03:17:56;1.00;99.90
19898;DHT22;10111;50.814;4.572;2023-02-15T03:20:30;1.00;99.90
19898;DHT22;10111;50.814;4.572;2023-02-15T03:23:12;1.00;99.90
19898;DHT22;10111;50.814;4.572;2023-02-15T03:25:42;1.10;99.90
19898;DHT22;10111;50.814;4.572;2023-02-15T03:28:13;1.10;99.90
19898;DHT22;10111;50.814;4.572;2023-02-15T03:30:43;0.90;99.90
19898;DHT22;10111;50.814;4.572;2023-02-15T03:33:11;1.00;99.90
19898;DHT22;10111;50.814;4.572;2023-02-15T03:39:11;1.00;99.90
19898;DHT22;10111;50.814;4.572;2023-02-15T03:41:40;1.10;99.90
19898;DHT22;10111;50.814;4.572;2023-02-15T03:44:35;1.00;99.90
19898;DHT22;10111;50.814;4.572;2023-02-15T03:47:05;0.90;99.90
19898;DHT22;10111;50.814;4.572;2023-02-15T03:52:22;0.80;99.90
19898;DHT22;10111;50.814;4.572;2023-02-15T03:54:50;0.90;99.90
19898;DHT22;10111;50.814;4.572;2023-02-15T03:57:24;1.00;99.90
19898;DHT22;10111;50.814;4.572;2023-02-15T04:00:18;0.80;99.90
19898;DHT22;10111;50.814;4.572;2023-02-15T04:05:56;0.80;99.90
19898;DHT22;10111;50.814;4.572;2023-02-15T04:08:22;0.90;99.90
19898;DHT22;10111;50.814;4.572;2023-02-15T04:11:07;0.70;99.90
19898;DHT22;10111;50.814;4.572;2023-02-15T04:13:33;0.70;99.90
19898;DHT22;10111;50.814;4.572;2023-02-15T04:15:59;0.80;99.90
19898;DHT22;10111;50.814;4.572;2023-02-15T04:18:41;0.80;99.90
19898;DHT22;10111;50.814;4.572;2023-02-15T04:21:28;0.80;99.90
19898;DHT22;10111;50.814;4.572;2023-02-15T04:24:13;0.80;99.90
19898;DHT22;10111;50.814;4.572;2023-02-15T04:26:59;0.80;99.90
19898;DHT22;10111;50.814;4.572;2023-02-15T04:29:26;0.70;99.90
19898;DHT22;10111;50.814;4.572;2023-02-15T04:31:55;0.60;99.90
19898;DHT22;10111;50.814;4.572;2023-02-15T04:34:21;0.80;99.90
19898;DHT22;10111;50.814;4.572;2023-02-15T04:36:47;0.60;99.90
19898;DHT22;10111;50.814;4.572;2023-02-15T04:39:13;0.60;99.90
19898;DHT22;10111;50.814;4.572;2023-02-15T04:41:40;0.60;99.90
19898;DHT22;10111;50.814;4.572;2023-02-15T04:44:05;0.70;99.90
19898;DHT22;10111;50.814;4.572;2023-02-15T04:46:31;0.70;99.90
19898;DHT22;10111;50.814;4.572;2023-02-15T04:48:57;0.60;99.90
19898;DHT22;10111;50.814;4.572;2023-02-15T04:51:23;0.60;99.90
19898;DHT22;10111;50.814;4.572;2023-02-15T04:53:49;0.60;99.90
19898;DHT22;10111;50.814;4.572;2023-02-15T04:56:15;0.50;99.90
19898;DHT22;10111;50.814;4.572;2023-02-15T04:58:40;0.50;99.90
19898;DHT22;10111;50.814;4.572;2023-02-15T05:01:09;0.50;99.90
19898;DHT22;10111;50.814;4.572;2023-02-15T05:03:35;0.50;99.90
19898;DHT22;10111;50.814;4.572;2023-02-15T05:06:01;0.50;99.90
19898;DHT22;10111;50.814;4.572;2023-02-15T05:08:27;0.70;99.90
19898;DHT22;10111;50.814;4.572;2023-02-15T05:10:52;0.70;99.90
19898;DHT22;10111;50.814;4.572;2023-02-15T05:13:18;0.50;99.90
19898;DHT22;10111;50.814;4.572;2023-02-15T05:15:48;0.50;99.90
19898;DHT22;10111;50.814;4.572;2023-02-15T05:18:14;0.40;99.90
19898;DHT22;10111;50.814;4.572;2023-02-15T05:20:40;0.40;99.90
19898;DHT22;10111;50.814;4.572;2023-02-15T05:23:06;0.40;99.90
19898;DHT22;10111;50.814;4.572;2023-02-15T05:25:31;0.40;99.90
19898;DHT22;10111;50.814;4.572;2023-02-15T05:28:16;0.50;99.90
19898;DHT22;10111;50.814;4.572;2023-02-15T05:30:45;0.40;99.90
19898;DHT22;10111;50.814;4.572;2023-02-15T05:33:10;0.40;99.90
19898;DHT22;10111;50.814;4.572;2023-02-15T05:35:36;0.40;99.90
19898;DHT22;10111;50.814;4.572;2023-02-15T05:38:02;0.50;99.90
19898;DHT22;10111;50.814;4.572;2023-02-15T05:40:27;0.60;99.90
19898;DHT22;10111;50.814;4.572;2023-02-15T05:42:53;0.50;99.90
19898;DHT22;10111;50.814;4.572;2023-02-15T05:45:18;0.40;99.90
19898;DHT22;10111;50.814;4.572;2023-02-15T05:47:44;0.40;99.90
19898;DHT22;10111;50.814;4.572;2023-02-15T05:50:10;0.40;99.90
19898;DHT22;10111;50.814;4.572;2023-02-15T05:52:37;0.40;99.90
19898;DHT22;10111;50.814;4.572;2023-02-15T05:55:03;0.40;99.90
19898;DHT22;10111;50.814;4.572;2023-02-15T05:57:29;0.30;99.90
19898;DHT22;10111;50.814;4.572;2023-02-15T05:59:55;0.30;99.90
19898;DHT22;10111;50.814;4.572;2023-02-15T06:02:21;0.40;99.90
19898;DHT22;10111;50.814;4.572;2023-02-15T06:04:47;0.50;99.90
19898;DHT22;10111;50.814;4.572;2023-02-15T06:07:12;0.40;99.90
19898;DHT22;10111;50.814;4.572;2023-02-15T06:09:38;0.40;99.90
19898;DHT22;10111;50.814;4.572;2023-02-15T06:12:04;0.40;99.90
19898;DHT22;10111;50.814;4.572;2023-02-15T06:14:29;0.40;99.90
19898;DHT22;10111;50.814;4.572;2023-02-15T06:16:55;0.20;99.90
19898;DHT22;10111;50.814;4.572;2023-02-15T06:19:21;0.20;99.90
19898;DHT22;10111;50.814;4.572;2023-02-15T06:21:48;0.20;99.90
19898;DHT22;10111;50.814;4.572;2023-02-15T06:24:14;0.30;99.90
19898;DHT22;10111;50.814;4.572;2023-02-15T06:26:39;0.20;99.90
19898;DHT22;10111;50.814;4.572;2023-02-15T06:29:05;0.10;99.90
19898;DHT22;10111;50.814;4.572;2023-02-15T06:31:31;0.10;99.90
19898;DHT22;10111;50.814;4.572;2023-02-15T06:33:57;0.20;99.90
19898;DHT22;10111;50.814;4.572;2023-02-15T06:36:30;0.20;99.90
19898;DHT22;10111;50.814;4.572;2023-02-15T06:38:56;0.10;99.90
19898;DHT22;10111;50.814;4.572;2023-02-15T06:41:23;0.10;99.90
19898;DHT22;10111;50.814;4.572;2023-02-15T06:43:48;0.10;99.90
19898;DHT22;10111;50.814;4.572;2023-02-15T06:46:14;0.20;99.90
19898;DHT22;10111;50.814;4.572;2023-02-15T06:48:40;0.00;99.90
19898;DHT22;10111;50.814;4.572;2023-02-15T06:51:06;0.10;99.90
19898;DHT22;10111;50.814;4.572;2023-02-15T06:53:32;0.10;99.90
19898;DHT22;10111;50.814;4.572;2023-02-15T06:56:05;0.20;99.90
19898;DHT22;10111;50.814;4.572;2023-02-15T06:58:35;0.10;99.90
19898;DHT22;10111;50.814;4.572;2023-02-15T07:01:01;0.10;99.90
19898;DHT22;10111;50.814;4.572;2023-02-15T07:03:27;0.10;99.90
19898;DHT22;10111;50.814;4.572;2023-02-15T07:05:56;0.10;99.90
19898;DHT22;10111;50.814;4.572;2023-02-15T07:08:23;0.10;99.90
19898;DHT22;10111;50.814;4.572;2023-02-15T07:10:49;0.10;99.90
19898;DHT22;10111;50.814;4.572;2023-02-15T07:13:15;0.10;99.90
19898;DHT22;10111;50.814;4.572;2023-02-15T07:15:41;0.20;99.90
19898;DHT22;10111;50.814;4.572;2023-02-15T07:18:06;0.20;99.90
19898;DHT22;10111;50.814;4.572;2023-02-15T07:20:32;0.20;99.90
19898;DHT22;10111;50.814;4.572;2023-02-15T07:23:01;0.30;99.90
19898;DHT22;10111;50.814;4.572;2023-02-15T07:25:26;0.40;99.90
19898;DHT22;10111;50.814;4.572;2023-02-15T07:27:59;0.40;99.90
19898;DHT22;10111;50.814;4.572;2023-02-15T07:30:25;0.60;99.90
19898;DHT22;10111;50.814;4.572;2023-02-15T07:32:54;0.60;99.90
19898;DHT22;10111;50.814;4.572;2023-02-15T07:35:38;0.70;99.90
19898;DHT22;10111;50.814;4.572;2023-02-15T07:38:11;0.80;99.90
19898;DHT22;10111;50.814;4.572;2023-02-15T07:40:36;0.90;99.90
19898;DHT22;10111;50.814;4.572;2023-02-15T07:43:02;1.00;99.90
19898;DHT22;10111;50.814;4.572;2023-02-15T07:45:28;1.10;99.90
19898;DHT22;10111;50.814;4.572;2023-02-15T07:47:53;1.10;99.90
19898;DHT22;10111;50.814;4.572;2023-02-15T07:50:19;1.20;99.90
19898;DHT22;10111;50.814;4.572;2023-02-15T07:52:44;1.40;99.90
19898;DHT22;10111;50.814;4.572;2023-02-15T07:55:10;1.30;99.90
19898;DHT22;10111;50.814;4.572;2023-02-15T07:57:42;1.30;99.90
19898;DHT22;10111;50.814;4.572;2023-02-15T08:00:08;1.40;99.90
19898;DHT22;10111;50.814;4.572;2023-02-15T08:02:34;1.50;99.90
19898;DHT22;10111;50.814;4.572;2023-02-15T08:05:02;1.60;99.90
19898;DHT22;10111;50.814;4.572;2023-02-15T08:07:28;1.60;99.90
19898;DHT22;10111;50.814;4.572;2023-02-15T08:09:53;1.90;99.90
19898;DHT22;10111;50.814;4.572;2023-02-15T08:12:19;1.80;99.90
19898;DHT22;10111;50.814;4.572;2023-02-15T08:14:45;1.80;99.90
19898;DHT22;10111;50.814;4.572;2023-02-15T08:17:11;1.90;99.90
19898;DHT22;10111;50.814;4.572;2023-02-15T08:19:36;1.90;99.90
19898;DHT22;10111;50.814;4.572;2023-02-15T08:22:05;2.00;99.90
19898;DHT22;10111;50.814;4.572;2023-02-15T08:24:33;2.10;99.90
19898;DHT22;10111;50.814;4.572;2023-02-15T08:26:59;2.20;99.90
19898;DHT22;10111;50.814;4.572;2023-02-15T08:29:27;2.50;99.90
19898;DHT22;10111;50.814;4.572;2023-02-15T08:31:55;2.40;99.90
19898;DHT22;10111;50.814;4.572;2023-02-15T08:34:21;2.50;99.90
19898;DHT22;10111;50.814;4.572;2023-02-15T08:36:46;2.60;99.90
19898;DHT22;10111;50.814;4.572;2023-02-15T08:39:13;2.80;99.90
19898;DHT22;10111;50.814;4.572;2023-02-15T08:41:42;2.90;99.90
19898;DHT22;10111;50.814;4.572;2023-02-15T08:44:08;3.10;99.90
19898;DHT22;10111;50.814;4.572;2023-02-15T08:46:37;3.30;99.90
19898;DHT22;10111;50.814;4.572;2023-02-15T08:49:03;3.40;99.90
19898;DHT22;10111;50.814;4.572;2023-02-15T08:51:35;3.70;99.90
19898;DHT22;10111;50.814;4.572;2023-02-15T08:54:06;3.80;99.90
19898;DHT22;10111;50.814;4.572;2023-02-15T08:56:34;4.00;99.90
19898;DHT22;10111;50.814;4.572;2023-02-15T08:59:01;4.10;99.90
19898;DHT22;10111;50.814;4.572;2023-02-15T09:01:29;4.30;99.90
19898;DHT22;10111;50.814;4.572;2023-02-15T09:03:57;4.50;99.90
19898;DHT22;10111;50.814;4.572;2023-02-15T09:06:23;4.70;99.90
19898;DHT22;10111;50.814;4.572;2023-02-15T09:08:49;5.10;99.90
19898;DHT22;10111;50.814;4.572;2023-02-15T09:11:21;5.00;99.90
19898;DHT22;10111;50.814;4.572;2023-02-15T09:13:56;5.30;99.90
19898;DHT22;10111;50.814;4.572;2023-02-15T09:16:25;5.50;99.90
19898;DHT22;10111;50.814;4.572;2023-02-15T09:18:51;5.60;99.90
19898;DHT22;10111;50.814;4.572;2023-02-15T09:21:20;5.80;99.90
19898;DHT22;10111;50.814;4.572;2023-02-15T09:23:48;6.00;99.90
19898;DHT22;10111;50.814;4.572;2023-02-15T09:26:18;6.30;99.90
19898;DHT22;10111;50.814;4.572;2023-02-15T09:28:44;6.40;99.90
19898;DHT22;10111;50.814;4.572;2023-02-15T09:31:16;6.50;99.90
19898;DHT22;10111;50.814;4.572;2023-02-15T09:33:43;6.70;99.90
19898;DHT22;10111;50.814;4.572;2023-02-15T09:38:45;6.90;99.90
19898;DHT22;10111;50.814;4.572;2023-02-15T09:49:45;7.40;99.90
19898;DHT22;10111;50.814;4.572;2023-02-15T09:54:50;7.70;99.90
19898;DHT22;10111;50.814;4.572;2023-02-15T10:00:29;8.00;99.90
19898;DHT22;10111;50.814;4.572;2023-02-15T10:05:53;8.50;99.90
19898;DHT22;10111;50.814;4.572;2023-02-15T10:11:31;8.60;99.90
19898;DHT22;10111;50.814;4.572;2023-02-15T10:22:21;8.80;99.90
19898;DHT22;10111;50.814;4.572;2023-02-15T10:25:18;9.00;99.90
19898;DHT22;10111;50.814;4.572;2023-02-15T10:27:48;9.00;99.90
19898;DHT22;10111;50.814;4.572;2023-02-15T10:30:25;9.10;99.90
19898;DHT22;10111;50.814;4.572;2023-02-15T10:35:51;9.50;99.90
19898;DHT22;10111;50.814;4.572;2023-02-15T10:38:31;9.70;99.90
19898;DHT22;10111;50.814;4.572;2023-02-15T10:41:22;9.90;99.90
19898;DHT22;10111;50.814;4.572;2023-02-15T11:03:02;10.90;99.90
19898;DHT22;10111;50.814;4.572;2023-02-15T11:05:46;10.80;99.90
19898;DHT22;10111;50.814;4.572;2023-02-15T11:08:18;10.70;99.90
19898;DHT22;10111;50.814;4.572;2023-02-15T11:10:49;10.90;99.90
19898;DHT22;10111;50.814;4.572;2023-02-15T11:13:19;11.10;99.90
19898;DHT22;10111;50.814;4.572;2023-02-15T11:15:50;11.20;99.90
19898;DHT22;10111;50.814;4.572;2023-02-15T11:20:59;11.30;99.90
19898;DHT22;10111;50.814;4.572;2023-02-15T11:23:27;11.40;99.90
19898;DHT22;10111;50.814;4.572;2023-02-15T11:26:01;11.50;99.90
19898;DHT22;10111;50.814;4.572;2023-02-15T11:29:13;11.50;99.90
19898;DHT22;10111;50.814;4.572;2023-02-15T11:31:23;11.50;99.90
19898;DHT22;10111;50.814;4.572;2023-02-15T11:34:03;11.60;99.90
19898;DHT22;10111;50.814;4.572;2023-02-15T11:36:37;11.70;99.90
19898;DHT22;10111;50.814;4.572;2023-02-15T11:39:13;11.70;99.90
19898;DHT22;10111;50.814;4.572;2023-02-15T11:41:44;11.90;99.90
19898;DHT22;10111;50.814;4.572;2023-02-15T11:46:43;11.80;99.90
19898;DHT22;10111;50.814;4.572;2023-02-15T11:49:27;11.90;99.90
19898;DHT22;10111;50.814;4.572;2023-02-15T11:51:55;11.90;99.90
19898;DHT22;10111;50.814;4.572;2023-02-15T11:54:30;12.00;99.90
19898;DHT22;10111;50.814;4.572;2023-02-15T11:57:21;12.10;99.90
19898;DHT22;10111;50.814;4.572;2023-02-15T11:59:56;12.10;99.90
19898;DHT22;10111;50.814;4.572;2023-02-15T12:02:24;12.10;99.90
19898;DHT22;10111;50.814;4.572;2023-02-15T12:04:58;12.10;99.90
19898;DHT22;10111;50.814;4.572;2023-02-15T12:07:35;12.20;99.90
19898;DHT22;10111;50.814;4.572;2023-02-15T12:10:17;12.10;99.90
19898;DHT22;10111;50.814;4.572;2023-02-15T12:12:45;12.20;99.90
19898;DHT22;10111;50.814;4.572;2023-02-15T12:15:12;12.10;99.90
19898;DHT22;10111;50.814;4.572;2023-02-15T12:17:52;12.10;99.90
19898;DHT22;10111;50.814;4.572;2023-02-15T12:22:53;12.10;99.90
19898;DHT22;10111;50.814;4.572;2023-02-15T12:25:25;12.30;99.90
19898;DHT22;10111;50.814;4.572;2023-02-15T12:27:51;12.50;99.90
19898;DHT22;10111;50.814;4.572;2023-02-15T12:30:19;12.60;99.90
19898;DHT22;10111;50.814;4.572;2023-02-15T12:32:52;12.50;99.90
19898;DHT22;10111;50.814;4.572;2023-02-15T12:35:29;12.40;99.90
19898;DHT22;10111;50.814;4.572;2023-02-15T12:38:19;12.60;99.90
19898;DHT22;10111;50.814;4.572;2023-02-15T12:41:03;12.80;99.90
19898;DHT22;10111;50.814;4.572;2023-02-15T12:43:35;12.90;99.90
19898;DHT22;10111;50.814;4.572;2023-02-15T12:46:26;12.90;99.90
19898;DHT22;10111;50.814;4.572;2023-02-15T12:49:11;12.80;99.90
19898;DHT22;10111;50.814;4.572;2023-02-15T12:52:06;12.90;99.90
19898;DHT22;10111;50.814;4.572;2023-02-15T12:54:42;13.00;99.90
19898;DHT22;10111;50.814;4.572;2023-02-15T12:59:56;13.10;99.90
19898;DHT22;10111;50.814;4.572;2023-02-15T13:02:52;13.10;99.90
19898;DHT22;10111;50.814;4.572;2023-02-15T13:08:28;13.30;99.90
19898;DHT22;10111;50.814;4.572;2023-02-15T13:11:40;13.20;99.90
19898;DHT22;10111;50.814;4.572;2023-02-15T13:13:52;13.10;99.90
19898;DHT22;10111;50.814;4.572;2023-02-15T13:19:19;13.30;99.90
19898;DHT22;10111;50.814;4.572;2023-02-15T13:21:50;13.20;99.90
19898;DHT22;10111;50.814;4.572;2023-02-15T13:24:29;13.10;99.90
19898;DHT22;10111;50.814;4.572;2023-02-15T13:26:58;13.10;99.90
19898;DHT22;10111;50.814;4.572;2023-02-15T13:29:32;13.10;99.90
19898;DHT22;10111;50.814;4.572;2023-02-15T13:32:22;13.20;99.90
19898;DHT22;10111;50.814;4.572;2023-02-15T13:34:54;13.20;99.90
19898;DHT22;10111;50.814;4.572;2023-02-15T13:40:15;13.20;99.90
19898;DHT22;10111;50.814;4.572;2023-02-15T13:42:56;13.20;99.90
19898;DHT22;10111;50.814;4.572;2023-02-15T13:45:28;13.20;99.90
19898;DHT22;10111;50.814;4.572;2023-02-15T13:48:20;13.20;99.90
19898;DHT22;10111;50.814;4.572;2023-02-15T13:51:21;13.20;99.90
19898;DHT22;10111;50.814;4.572;2023-02-15T13:54:15;13.20;99.90
19898;DHT22;10111;50.814;4.572;2023-02-15T14:00:19;13.10;99.90
19898;DHT22;10111;50.814;4.572;2023-02-15T14:05:10;13.30;99.90
19898;DHT22;10111;50.814;4.572;2023-02-15T14:10:38;13.50;99.90
19898;DHT22;10111;50.814;4.572;2023-02-15T14:19:13;13.50;99.90
19898;DHT22;10111;50.814;4.572;2023-02-15T14:21:41;13.50;99.90
19898;DHT22;10111;50.814;4.572;2023-02-15T14:25:02;13.50;99.90
19898;DHT22;10111;50.814;4.572;2023-02-15T14:32:44;13.30;99.90
19898;DHT22;10111;50.814;4.572;2023-02-15T14:35:19;13.30;99.90
19898;DHT22;10111;50.814;4.572;2023-02-15T14:38:02;13.30;99.90
19898;DHT22;10111;50.814;4.572;2023-02-15T14:40:38;13.30;99.90
19898;DHT22;10111;50.814;4.572;2023-02-15T14:46:34;13.30;99.90
19898;DHT22;10111;50.814;4.572;2023-02-15T14:49:32;13.30;99.90
19898;DHT22;10111;50.814;4.572;2023-02-15T14:52:11;13.40;99.90
19898;DHT22;10111;50.814;4.572;2023-02-15T15:02:46;13.40;99.90
19898;DHT22;10111;50.814;4.572;2023-02-15T15:05:34;13.30;99.90
19898;DHT22;10111;50.814;4.572;2023-02-15T15:08:03;13.30;99.90
19898;DHT22;10111;50.814;4.572;2023-02-15T15:10:46;13.20;99.90
19898;DHT22;10111;50.814;4.572;2023-02-15T15:15:56;13.20;99.90
19898;DHT22;10111;50.814;4.572;2023-02-15T15:18:44;13.20;99.90
19898;DHT22;10111;50.814;4.572;2023-02-15T15:21:11;13.20;99.90
19898;DHT22;10111;50.814;4.572;2023-02-15T15:26:24;13.20;99.90
19898;DHT22;10111;50.814;4.572;2023-02-15T15:34:17;13.20;99.90
19898;DHT22;10111;50.814;4.572;2023-02-15T15:42:31;13.00;99.90
19898;DHT22;10111;50.814;4.572;2023-02-15T15:50:53;12.80;99.90
19898;DHT22;10111;50.814;4.572;2023-02-15T15:53:24;12.80;99.90
19898;DHT22;10111;50.814;4.572;2023-02-15T15:55:56;12.80;99.90
19898;DHT22;10111;50.814;4.572;2023-02-15T15:58:24;12.80;99.90
19898;DHT22;10111;50.814;4.572;2023-02-15T16:00:54;12.80;99.90
19898;DHT22;10111;50.814;4.572;2023-02-15T16:03:24;12.70;99.90
19898;DHT22;10111;50.814;4.572;2023-02-15T16:05:50;12.60;99.90
19898;DHT22;10111;50.814;4.572;2023-02-15T16:08:37;12.60;99.90
19898;DHT22;10111;50.814;4.572;2023-02-15T16:11:36;12.40;99.90
19898;DHT22;10111;50.814;4.572;2023-02-15T16:16:52;12.10;99.90
19898;DHT22;10111;50.814;4.572;2023-02-15T16:19:43;12.10;99.90
19898;DHT22;10111;50.814;4.572;2023-02-15T16:22:15;11.90;99.90
19898;DHT22;10111;50.814;4.572;2023-02-15T16:24:48;11.80;99.90
19898;DHT22;10111;50.814;4.572;2023-02-15T16:29:48;11.60;99.90
19898;DHT22;10111;50.814;4.572;2023-02-15T16:32:20;11.40;99.90
19898;DHT22;10111;50.814;4.572;2023-02-15T16:35:14;11.20;99.90
19898;DHT22;10111;50.814;4.572;2023-02-15T16:37:40;11.10;99.90
19898;DHT22;10111;50.814;4.572;2023-02-15T16:40:11;10.90;99.90
19898;DHT22;10111;50.814;4.572;2023-02-15T16:42:38;10.80;99.90
19898;DHT22;10111;50.814;4.572;2023-02-15T16:45:13;10.70;99.90
19898;DHT22;10111;50.814;4.572;2023-02-15T16:47:45;10.60;99.90
19898;DHT22;10111;50.814;4.572;2023-02-15T16:50:21;10.50;99.90
19898;DHT22;10111;50.814;4.572;2023-02-15T16:52:49;10.30;99.90
19898;DHT22;10111;50.814;4.572;2023-02-15T16:55:23;10.20;99.90
19898;DHT22;10111;50.814;4.572;2023-02-15T16:57:50;10.10;99.90
19898;DHT22;10111;50.814;4.572;2023-02-15T17:00:19;10.00;99.90
19898;DHT22;10111;50.814;4.572;2023-02-15T17:03:39;9.90;99.90
19898;DHT22;10111;50.814;4.572;2023-02-15T17:08:15;9.80;99.90
19898;DHT22;10111;50.814;4.572;2023-02-15T17:10:45;9.70;99.90
19898;DHT22;10111;50.814;4.572;2023-02-15T17:13:14;9.70;99.90
19898;DHT22;10111;50.814;4.572;2023-02-15T17:15:42;9.50;99.90
19898;DHT22;10111;50.814;4.572;2023-02-15T17:18:22;9.50;99.90
19898;DHT22;10111;50.814;4.572;2023-02-15T17:20:50;9.50;99.90
19898;DHT22;10111;50.814;4.572;2023-02-15T17:25:49;9.40;99.90
19898;DHT22;10111;50.814;4.572;2023-02-15T17:28:24;9.30;99.90
19898;DHT22;10111;50.814;4.572;2023-02-15T17:30:51;9.20;99.90
19898;DHT22;10111;50.814;4.572;2023-02-15T17:33:34;9.10;99.90
19898;DHT22;10111;50.814;4.572;2023-02-15T17:36:18;9.00;99.90
19898;DHT22;10111;50.814;4.572;2023-02-15T17:39:18;9.00;99.90
19898;DHT22;10111;50.814;4.572;2023-02-15T17:41:44;9.00;99.90
19898;DHT22;10111;50.814;4.572;2023-02-15T17:44:10;9.00;99.90
19898;DHT22;10111;50.814;4.572;2023-02-15T17:46:40;9.00;99.90
19898;DHT22;10111;50.814;4.572;2023-02-15T17:49:06;9.00;99.90
19898;DHT22;10111;50.814;4.572;2023-02-15T17:51:32;9.00;99.90
19898;DHT22;10111;50.814;4.572;2023-02-15T17:54:01;9.20;99.90
19898;DHT22;10111;50.814;4.572;2023-02-15T17:56:45;9.20;99.90
19898;DHT22;10111;50.814;4.572;2023-02-15T17:59:11;9.30;99.90
19898;DHT22;10111;50.814;4.572;2023-02-15T18:01:44;9.40;99.90
19898;DHT22;10111;50.814;4.572;2023-02-15T18:04:31;9.40;99.90
19898;DHT22;10111;50.814;4.572;2023-02-15T18:07:16;9.30;99.90
19898;DHT22;10111;50.814;4.572;2023-02-15T18:10:05;9.20;99.90
19898;DHT22;10111;50.814;4.572;2023-02-15T18:12:55;9.10;99.90
19898;DHT22;10111;50.814;4.572;2023-02-15T18:15:21;9.00;99.90
19898;DHT22;10111;50.814;4.572;2023-02-15T18:17:46;9.00;99.90
19898;DHT22;10111;50.814;4.572;2023-02-15T18:20:21;8.90;99.90
19898;DHT22;10111;50.814;4.572;2023-02-15T18:22:49;8.90;99.90
19898;DHT22;10111;50.814;4.572;2023-02-15T18:25:17;8.90;99.90
19898;DHT22;10111;50.814;4.572;2023-02-15T18:27:44;8.90;99.90
19898;DHT22;10111;50.814;4.572;2023-02-15T18:30:18;8.90;99.90
19898;DHT22;10111;50.814;4.572;2023-02-15T18:32:44;9.00;99.90
19898;DHT22;10111;50.814;4.572;2023-02-15T18:35:20;9.00;99.90
19898;DHT22;10111;50.814;4.572;2023-02-15T18:37:46;9.00;99.90
19898;DHT22;10111;50.814;4.572;2023-02-15T18:40:20;9.00;99.90
19898;DHT22;10111;50.814;4.572;2023-02-15T18:42:46;9.00;99.90
19898;DHT22;10111;50.814;4.572;2023-02-15T18:45:20;9.10;99.90
19898;DHT22;10111;50.814;4.572;2023-02-15T18:47:47;8.90;99.90
19898;DHT22;10111;50.814;4.572;2023-02-15T18:50:14;8.90;99.90
19898;DHT22;10111;50.814;4.572;2023-02-15T18:52:40;9.20;99.90
19898;DHT22;10111;50.814;4.572;2023-02-15T18:55:25;9.40;99.90
19898;DHT22;10111;50.814;4.572;2023-02-15T18:57:54;9.40;99.90